createdAt,value
2023-01-22T00:01:20.199Z,19.08
2023-01-22T00:03:49.775Z,20.45
2023-01-22T00:06:18.081Z,17.33
2023-01-22T00:08:46.904Z,18.25
2023-01-22T00:11:16.330Z,16.90
2023-01-22T00:13:45.029Z,17.10
2023-01-22T00:16:15.499Z,13.65
2023-01-22T00:18:44.183Z,17.73
2023-01-22T00:21:13.917Z,23.10
2023-01-22T00:23:41.829Z,19.27
2023-01-22T00:26:16.402Z,17.95
2023-01-22T00:28:46.058Z,18.65
2023-01-22T00:31:16.504Z,20.25
2023-01-22T00:33:45.662Z,14.15
2023-01-22T00:36:20.154Z,14.82
2023-01-22T00:38:50.578Z,10.75
2023-01-22T00:41:19.931Z,10.90
2023-01-22T00:43:48.138Z,11.68
2023-01-22T00:46:17.933Z,10.88
2023-01-22T00:48:45.836Z,12.90
2023-01-22T00:51:15.860Z,17.85
2023-01-22T00:53:46.638Z,13.18
2023-01-22T00:56:15.186Z,19.17
2023-01-22T00:58:43.199Z,20.40
2023-01-22T01:01:14.537Z,17.02
2023-01-22T01:03:42.748Z,17.83
2023-01-22T01:06:22.135Z,23.27
2023-01-22T01:08:50.489Z,19.95
2023-01-22T01:11:30.267Z,17.98
2023-01-22T01:13:58.167Z,28.15
2023-01-22T01:16:30.033Z,17.50
2023-01-22T01:19:05.889Z,16.58
2023-01-22T01:21:35.015Z,17.10
2023-01-22T01:24:02.973Z,18.92
2023-01-22T01:26:31.416Z,14.63
2023-01-22T01:28:59.282Z,17.10
2023-01-22T01:31:27.674Z,17.10
2023-01-22T01:33:58.599Z,18.58
2023-01-22T01:36:47.100Z,30.30
2023-01-22T01:39:14.675Z,24.02
2023-01-22T01:41:44.457Z,21.48
2023-01-22T01:44:21.023Z,15.80
2023-01-22T01:46:54.515Z,16.40
2023-01-22T01:49:35.348Z,15.55
2023-01-22T01:52:09.571Z,16.65
2023-01-22T01:54:43.159Z,17.08
2023-01-22T01:57:22.406Z,17.95
2023-01-22T01:59:52.054Z,14.02
2023-01-22T02:02:20.925Z,22.15
2023-01-22T02:04:51.495Z,18.05
2023-01-22T02:07:20.845Z,19.15
2023-01-22T02:09:48.790Z,13.90
2023-01-22T02:12:16.999Z,17.52
2023-01-22T02:14:46.838Z,29.95
2023-01-22T02:17:19.209Z,21.83
2023-01-22T02:19:47.826Z,21.27
2023-01-22T02:22:21.411Z,18.65
2023-01-22T02:24:50.375Z,20.67
2023-01-22T02:27:20.793Z,16.83
2023-01-22T02:29:50.118Z,15.32
2023-01-22T02:32:18.821Z,17.30
2023-01-22T02:34:46.720Z,16.88
2023-01-22T02:37:16.027Z,16.15
2023-01-22T02:39:43.883Z,15.45
2023-01-22T02:42:12.457Z,20.10
2023-01-22T02:44:42.001Z,15.75
2023-01-22T02:47:11.278Z,20.80
2023-01-22T02:49:39.163Z,18.20
2023-01-22T02:52:07.951Z,18.63
2023-01-22T02:54:36.616Z,19.10
2023-01-22T02:57:04.857Z,16.77
2023-01-22T02:59:32.767Z,14.45
2023-01-22T03:02:02.332Z,14.77
2023-01-22T03:04:30.208Z,18.42
2023-01-22T03:06:58.386Z,14.40
2023-01-22T03:09:30.082Z,22.02
2023-01-22T03:11:59.251Z,17.65
2023-01-22T03:14:49.722Z,17.33
2023-01-22T03:17:38.167Z,19.30
2023-01-22T03:20:25.218Z,13.07
2023-01-22T03:22:54.403Z,15.32
2023-01-22T03:25:22.257Z,18.88
2023-01-22T03:28:16.656Z,15.20
2023-01-22T03:30:49.617Z,19.45
2023-01-22T03:33:19.157Z,16.90
2023-01-22T03:35:50.176Z,15.60
2023-01-22T03:38:22.613Z,14.30
2023-01-22T03:40:50.539Z,11.15
2023-01-22T03:43:20.377Z,14.70
2023-01-22T03:45:48.691Z,17.05
2023-01-22T03:48:20.979Z,17.15
2023-01-22T03:50:49.378Z,16.45
2023-01-22T03:53:18.804Z,15.10
2023-01-22T03:55:46.716Z,17.83
2023-01-22T03:58:14.898Z,13.27
2023-01-22T04:00:42.811Z,16.25
2023-01-22T04:03:12.349Z,14.85
2023-01-22T04:05:41.571Z,21.90
2023-01-22T04:08:09.867Z,15.50
2023-01-22T04:10:42.887Z,18.08
2023-01-22T04:13:11.163Z,19.13
2023-01-22T04:15:44.917Z,13.98
2023-01-22T04:18:39.247Z,17.17
2023-01-22T04:21:22.050Z,19.52
2023-01-22T04:23:59.160Z,13.48
2023-01-22T04:26:27.115Z,19.25
2023-01-22T04:28:57.427Z,21.02
2023-01-22T04:31:26.397Z,13.73
2023-01-22T04:34:16.044Z,18.67
2023-01-22T04:36:54.217Z,17.77
2023-01-22T04:39:24.544Z,17.17
2023-01-22T04:41:52.467Z,13.18
2023-01-22T04:44:21.099Z,15.95
2023-01-22T04:46:49.125Z,18.35
2023-01-22T04:49:17.331Z,13.57
2023-01-22T04:51:46.248Z,13.30
2023-01-22T04:54:14.457Z,17.20
2023-01-22T04:56:42.328Z,15.80
2023-01-22T04:59:11.407Z,16.80
2023-01-22T05:01:42.697Z,17.60
2023-01-22T05:04:11.333Z,12.77
2023-01-22T05:06:39.237Z,13.68
2023-01-22T05:09:07.479Z,12.88
2023-01-22T05:11:50.404Z,18.35
2023-01-22T05:14:19.047Z,16.10
2023-01-22T05:16:49.600Z,10.40
2023-01-22T05:19:17.967Z,13.73
2023-01-22T05:21:46.220Z,15.05
2023-01-22T05:24:18.820Z,19.63
2023-01-22T05:26:46.818Z,15.73
2023-01-22T05:29:20.143Z,12.85
2023-01-22T05:32:14.087Z,9.80
2023-01-22T05:34:47.098Z,11.32
2023-01-22T05:37:15.057Z,35.22
2023-01-22T05:39:43.405Z,10.23
2023-01-22T05:42:16.300Z,15.90
2023-01-22T05:44:48.847Z,10.50
2023-01-22T05:47:20.122Z,13.90
2023-01-22T05:50:10.198Z,11.38
2023-01-22T05:52:38.048Z,18.45
2023-01-22T05:55:06.738Z,13.77
2023-01-22T05:57:41.898Z,16.02
2023-01-22T06:00:12.461Z,15.15
2023-01-22T06:02:44.583Z,12.25
2023-01-22T06:05:15.217Z,10.25
2023-01-22T06:07:45.688Z,15.88
2023-01-22T06:10:13.957Z,9.05
2023-01-22T06:12:47.580Z,12.63
2023-01-22T06:15:16.063Z,9.70
2023-01-22T06:17:49.243Z,12.07
2023-01-22T06:20:17.762Z,13.90
2023-01-22T06:22:45.932Z,14.15
2023-01-22T06:25:14.233Z,12.45
2023-01-22T06:27:59.742Z,13.73
2023-01-22T06:30:28.049Z,9.68
2023-01-22T06:32:56.194Z,8.35
2023-01-22T06:35:25.721Z,12.40
2023-01-22T06:37:54.380Z,13.32
2023-01-22T06:40:24.090Z,10.50
2023-01-22T06:42:52.099Z,12.02
2023-01-22T06:45:21.062Z,8.57
2023-01-22T06:47:53.361Z,6.20
2023-01-22T06:50:21.543Z,10.20
2023-01-22T06:52:49.441Z,8.30
2023-01-22T06:55:18.746Z,8.07
2023-01-22T06:57:47.303Z,9.68
2023-01-22T07:00:16.161Z,10.55
2023-01-22T07:02:44.411Z,7.75
2023-01-22T07:05:12.794Z,7.57
2023-01-22T07:07:40.632Z,11.68
2023-01-22T07:10:10.161Z,10.13
2023-01-22T07:12:38.072Z,10.23
2023-01-22T07:15:08.139Z,7.57
2023-01-22T07:17:37.699Z,9.32
2023-01-22T07:20:06.158Z,7.78
2023-01-22T07:22:34.071Z,10.73
2023-01-22T07:25:02.374Z,8.50
2023-01-22T07:27:32.690Z,8.00
2023-01-22T07:30:01.160Z,10.75
2023-01-22T07:32:29.162Z,8.40
2023-01-22T07:34:57.333Z,6.90
2023-01-22T07:37:25.232Z,11.20
2023-01-22T07:39:54.077Z,8.93
2023-01-22T07:42:21.979Z,8.15
2023-01-22T07:44:50.322Z,9.95
2023-01-22T07:47:18.315Z,14.70
2023-01-22T07:49:46.599Z,19.88
2023-01-22T07:52:14.579Z,9.55
2023-01-22T07:54:42.906Z,9.75
2023-01-22T07:57:15.762Z,7.32
2023-01-22T07:59:44.028Z,9.30
2023-01-22T08:02:16.453Z,10.98
2023-01-22T08:04:44.640Z,6.38
2023-01-22T08:07:17.045Z,15.30
2023-01-22T08:12:14.078Z,8.82
2023-01-22T08:14:42.262Z,10.55
2023-01-22T08:17:10.122Z,9.90
2023-01-22T08:19:38.332Z,10.05
2023-01-22T08:22:06.443Z,6.25
2023-01-22T08:24:34.871Z,3.85
2023-01-22T08:27:03.311Z,7.22
2023-01-22T08:29:31.574Z,7.50
2023-01-22T08:31:59.491Z,3.72
2023-01-22T08:34:27.994Z,5.15
2023-01-22T08:36:56.093Z,4.65
2023-01-22T08:39:24.463Z,5.65
2023-01-22T08:41:57.511Z,6.57
2023-01-22T08:44:27.160Z,3.38
2023-01-22T08:46:55.023Z,1.80
2023-01-22T08:49:23.322Z,2.53
2023-01-22T08:51:51.200Z,6.93
2023-01-22T08:54:21.713Z,5.47
2023-01-22T08:56:49.781Z,9.10
2023-01-22T08:59:17.919Z,1.83
2023-01-22T09:01:45.837Z,2.10
2023-01-22T09:04:13.994Z,3.90
2023-01-22T09:06:43.059Z,2.53
2023-01-22T09:09:12.602Z,4.05
2023-01-22T09:11:41.055Z,3.67
2023-01-22T09:14:10.199Z,1.92
2023-01-22T09:16:38.314Z,8.63
2023-01-22T09:19:07.919Z,2.63
2023-01-22T09:21:37.566Z,5.90
2023-01-22T09:24:07.034Z,1.98
2023-01-22T09:26:37.420Z,5.05
2023-01-22T09:29:07.318Z,3.13
2023-01-22T09:31:37.158Z,5.00
2023-01-22T09:34:06.560Z,3.13
2023-01-22T09:36:34.579Z,2.47
2023-01-22T09:39:02.769Z,1.92
2023-01-22T09:41:38.997Z,5.63
2023-01-22T09:44:20.291Z,4.07
2023-01-22T09:47:04.058Z,1.85
2023-01-22T09:52:06.639Z,2.85
2023-01-22T09:54:34.950Z,3.60
2023-01-22T09:57:06.368Z,5.68
2023-01-22T09:59:53.099Z,1.95
2023-01-22T10:02:35.448Z,10.05
2023-01-22T10:05:32.133Z,1.88
2023-01-22T10:08:21.889Z,4.88
2023-01-22T10:10:52.270Z,2.88
2023-01-22T10:13:27.730Z,2.17
2023-01-22T10:15:56.829Z,6.00
2023-01-22T10:18:37.808Z,2.70
2023-01-22T10:21:18.652Z,3.80
2023-01-22T10:23:47.299Z,3.72
2023-01-22T10:26:25.400Z,2.35
2023-01-22T10:28:58.582Z,3.35
2023-01-22T10:31:35.840Z,2.28
2023-01-22T10:34:31.561Z,4.07
2023-01-22T10:37:15.348Z,7.63
2023-01-22T10:39:46.397Z,3.03
2023-01-22T10:42:23.314Z,3.85
2023-01-22T10:44:57.130Z,1.98
2023-01-22T10:47:27.802Z,5.20
2023-01-22T10:50:12.801Z,4.38
2023-01-22T10:52:48.165Z,2.63
2023-01-22T10:55:28.500Z,4.57
2023-01-22T10:58:05.040Z,6.10
2023-01-22T11:00:46.660Z,3.55
2023-01-22T11:03:39.759Z,4.65
2023-01-22T11:06:15.598Z,4.13
2023-01-22T11:08:57.421Z,4.65
2023-01-22T11:11:32.183Z,2.33
2023-01-22T11:14:00.381Z,3.17
2023-01-22T11:16:32.470Z,2.90
2023-01-22T11:19:16.788Z,4.20
2023-01-22T11:21:50.700Z,2.72
2023-01-22T11:27:20.811Z,6.15
2023-01-22T11:29:52.059Z,8.40
2023-01-22T11:32:22.981Z,4.60
2023-01-22T11:35:15.246Z,2.35
2023-01-22T11:38:17.815Z,2.15
2023-01-22T11:41:17.046Z,4.45
2023-01-22T11:43:47.884Z,1.77
2023-01-22T11:46:41.147Z,2.85
2023-01-22T11:49:19.590Z,6.97
2023-01-22T11:52:19.248Z,2.33
2023-01-22T11:55:22.957Z,2.28
2023-01-22T11:58:01.727Z,4.28
2023-01-22T12:00:53.968Z,2.40
2023-01-22T12:04:00.872Z,3.58
2023-01-22T12:06:28.838Z,2.75
2023-01-22T12:09:04.628Z,2.42
2023-01-22T12:11:41.253Z,1.95
2023-01-22T12:14:27.786Z,1.83
2023-01-22T12:17:36.319Z,9.55
2023-01-22T12:20:32.211Z,2.20
2023-01-22T12:23:08.931Z,3.63
2023-01-22T12:25:44.389Z,1.80
2023-01-22T12:28:15.590Z,2.10
2023-01-22T12:31:14.464Z,4.35
2023-01-22T12:33:44.267Z,5.32
2023-01-22T12:36:19.948Z,2.60
2023-01-22T12:39:15.392Z,4.32
2023-01-22T12:42:02.193Z,2.65
2023-01-22T12:45:14.077Z,1.88
2023-01-22T12:47:45.510Z,1.75
2023-01-22T12:50:22.146Z,4.13
2023-01-22T12:53:02.879Z,3.05
2023-01-22T12:55:44.075Z,2.58
2023-01-22T12:58:23.563Z,1.55
2023-01-22T13:01:03.421Z,2.80
2023-01-22T13:03:33.474Z,4.82
2023-01-22T13:06:04.359Z,2.42
2023-01-22T13:08:42.565Z,6.55
2023-01-22T13:11:14.172Z,4.22
2023-01-22T13:13:53.979Z,1.27
2023-01-22T13:16:35.532Z,1.88
2023-01-22T13:19:28.564Z,1.70
2023-01-22T13:22:01.028Z,2.20
2023-01-22T13:24:29.462Z,1.58
2023-01-22T13:27:03.246Z,3.10
2023-01-22T13:29:37.935Z,2.88
2023-01-22T13:32:16.864Z,1.90
2023-01-22T13:34:45.306Z,2.13
2023-01-22T13:37:27.264Z,4.07
2023-01-22T13:39:55.622Z,2.33
2023-01-22T13:42:24.978Z,2.15
2023-01-22T13:44:53.387Z,2.30
2023-01-22T13:47:29.542Z,2.78
2023-01-22T13:49:59.550Z,3.10
2023-01-22T13:52:33.589Z,2.58
2023-01-22T13:55:07.065Z,2.78
2023-01-22T13:57:35.134Z,3.00
2023-01-22T14:00:04.734Z,2.17
2023-01-22T14:02:35.869Z,2.85
2023-01-22T14:05:04.563Z,2.50
2023-01-22T14:07:35.190Z,2.65
2023-01-22T14:10:33.961Z,3.22
2023-01-22T14:13:05.066Z,4.47
2023-01-22T14:15:34.719Z,2.33
2023-01-22T14:18:21.465Z,1.70
2023-01-22T14:20:49.743Z,3.53
2023-01-22T14:23:17.639Z,1.33
2023-01-22T14:25:51.338Z,4.25
2023-01-22T14:28:20.127Z,5.57
2023-01-22T14:30:49.877Z,2.05
2023-01-22T14:33:32.516Z,2.25
2023-01-22T14:36:01.402Z,6.80
2023-01-22T14:38:29.511Z,1.90
2023-01-22T14:40:57.912Z,2.72
2023-01-22T14:43:25.926Z,2.00
2023-01-22T14:45:55.235Z,2.92
2023-01-22T14:48:23.542Z,2.38
2023-01-22T14:50:52.022Z,1.90
2023-01-22T14:53:19.964Z,2.78
2023-01-22T14:55:48.292Z,3.45
2023-01-22T14:58:16.612Z,2.22
2023-01-22T15:00:45.775Z,2.17
2023-01-22T15:03:13.875Z,2.55
2023-01-22T15:05:42.152Z,7.22
2023-01-22T15:08:10.167Z,3.47
2023-01-22T15:10:38.532Z,2.92
2023-01-22T15:13:06.514Z,2.95
2023-01-22T15:15:34.862Z,4.38
2023-01-22T15:18:02.784Z,3.40
2023-01-22T15:20:31.134Z,3.97
2023-01-22T15:22:59.183Z,5.15
2023-01-22T15:25:27.571Z,5.05
2023-01-22T15:27:55.573Z,6.28
2023-01-22T15:30:23.947Z,3.33
2023-01-22T15:32:51.901Z,5.05
2023-01-22T15:35:20.213Z,7.05
2023-01-22T15:37:48.721Z,4.30
2023-01-22T15:40:17.848Z,2.22
2023-01-22T15:42:46.093Z,7.30
2023-01-22T15:45:15.538Z,6.43
2023-01-22T15:47:43.618Z,20.60
2023-01-22T15:50:12.154Z,25.38
2023-01-22T15:52:40.101Z,8.93
2023-01-22T15:55:08.848Z,5.55
2023-01-22T15:57:36.888Z,19.27
2023-01-22T16:00:07.863Z,16.13
2023-01-22T16:02:40.408Z,25.95
2023-01-22T16:05:09.027Z,8.82
2023-01-22T16:07:36.953Z,11.43
2023-01-22T16:10:06.183Z,4.40
2023-01-22T16:12:35.102Z,3.60
2023-01-22T16:15:03.562Z,3.22
2023-01-22T16:17:31.513Z,3.45
2023-01-22T16:19:59.821Z,3.45
2023-01-22T16:22:28.023Z,6.32
2023-01-22T16:24:56.344Z,9.23
2023-01-22T16:27:24.348Z,8.05
2023-01-22T16:29:52.574Z,6.25
2023-01-22T16:32:20.691Z,5.75
2023-01-22T16:34:50.190Z,2.97
2023-01-22T16:37:18.128Z,3.65
2023-01-22T16:39:46.311Z,5.15
2023-01-22T16:42:14.285Z,5.53
2023-01-22T16:44:42.726Z,3.42
2023-01-22T16:47:10.823Z,5.35
2023-01-22T16:49:39.091Z,3.00
2023-01-22T16:52:21.884Z,6.50
2023-01-22T16:54:51.532Z,4.55
2023-01-22T16:57:20.377Z,7.13
2023-01-22T16:59:49.721Z,3.97
2023-01-22T17:02:19.482Z,4.88
2023-01-22T17:04:48.218Z,3.97
2023-01-22T17:07:31.870Z,4.75
2023-01-22T17:10:01.589Z,5.85
2023-01-22T17:12:29.602Z,7.47
2023-01-22T17:14:58.414Z,6.53
2023-01-22T17:17:26.617Z,6.82
2023-01-22T17:19:55.416Z,9.60
2023-01-22T17:22:24.419Z,3.15
2023-01-22T17:24:52.879Z,6.28
2023-01-22T17:27:21.732Z,4.15
2023-01-22T17:29:50.047Z,3.92
2023-01-22T17:32:17.991Z,4.45
2023-01-22T17:34:47.589Z,3.22
2023-01-22T17:37:15.583Z,6.90
2023-01-22T17:39:46.308Z,3.38
2023-01-22T17:42:14.358Z,3.92
2023-01-22T17:44:42.681Z,3.75
2023-01-22T17:47:11.325Z,8.68
2023-01-22T17:49:39.771Z,4.45
2023-01-22T17:52:09.503Z,7.10
2023-01-22T17:54:38.629Z,8.35
2023-01-22T17:57:07.163Z,5.32
2023-01-22T17:59:35.504Z,6.35
2023-01-22T18:02:03.828Z,10.30
2023-01-22T18:04:34.774Z,5.13
2023-01-22T18:07:04.028Z,7.00
2023-01-22T18:09:32.404Z,4.60
2023-01-22T18:12:00.637Z,5.85
2023-01-22T18:14:34.208Z,7.55
2023-01-22T18:17:02.760Z,11.73
2023-01-22T18:19:30.759Z,11.18
2023-01-22T18:21:59.091Z,5.38
2023-01-22T18:24:27.547Z,7.38
2023-01-22T18:26:58.868Z,8.88
2023-01-22T18:29:27.389Z,11.18
2023-01-22T18:31:55.758Z,10.23
2023-01-22T18:34:24.152Z,11.63
2023-01-22T18:36:52.542Z,12.35
2023-01-22T18:39:21.445Z,12.43
2023-01-22T18:41:49.809Z,11.23
2023-01-22T18:44:19.773Z,11.40
2023-01-22T18:46:52.819Z,7.93
2023-01-22T18:49:20.748Z,10.23
2023-01-22T18:51:49.627Z,10.43
2023-01-22T18:54:17.733Z,13.68
2023-01-22T18:56:47.440Z,12.68
2023-01-22T18:59:18.181Z,15.02
2023-01-22T19:01:51.976Z,13.02
2023-01-22T19:04:22.178Z,21.08
2023-01-22T19:06:52.999Z,16.85
2023-01-22T19:09:21.800Z,21.52
2023-01-22T19:11:52.641Z,25.83
2023-01-22T19:14:22.536Z,21.30
2023-01-22T19:16:53.576Z,16.63
2023-01-22T19:19:25.133Z,13.50
2023-01-22T19:21:55.639Z,13.88
2023-01-22T19:24:28.464Z,12.25
2023-01-22T19:26:57.736Z,8.77
2023-01-22T19:29:26.749Z,12.38
2023-01-22T19:31:55.962Z,8.45
2023-01-22T19:34:24.955Z,14.32
2023-01-22T19:37:01.665Z,10.70
2023-01-22T19:39:31.349Z,9.35
2023-01-22T19:42:05.377Z,12.90
2023-01-22T19:44:36.269Z,13.88
2023-01-22T19:47:04.368Z,14.88
2023-01-22T19:49:32.951Z,10.35
2023-01-22T19:52:00.958Z,11.20
2023-01-22T19:54:29.290Z,16.30
2023-01-22T19:56:57.229Z,16.73
2023-01-22T19:59:25.608Z,14.13
2023-01-22T20:01:54.572Z,12.73
2023-01-22T20:04:25.801Z,14.05
2023-01-22T20:06:59.979Z,10.90
2023-01-22T20:09:30.050Z,12.15
2023-01-22T20:11:58.417Z,11.82
2023-01-22T20:14:30.553Z,17.25
2023-01-22T20:17:00.410Z,15.40
2023-01-22T20:19:30.674Z,17.10
2023-01-22T20:22:00.842Z,14.13
2023-01-22T20:24:29.188Z,14.82
2023-01-22T20:26:58.749Z,19.58
2023-01-22T20:29:27.618Z,11.55
2023-01-22T20:31:56.929Z,20.85
2023-01-22T20:34:26.119Z,17.40
2023-01-22T20:36:54.092Z,11.77
2023-01-22T20:39:22.452Z,15.50
2023-01-22T20:41:50.491Z,11.25
2023-01-22T20:44:18.883Z,10.73
2023-01-22T20:46:48.989Z,9.48
2023-01-22T20:49:17.330Z,6.65
2023-01-22T20:51:45.381Z,12.18
2023-01-22T20:54:14.133Z,12.50
2023-01-22T20:56:42.163Z,8.35
2023-01-22T20:59:14.131Z,10.68
2023-01-22T21:01:42.273Z,9.43
2023-01-22T21:04:12.948Z,11.02
2023-01-22T21:06:41.635Z,13.88
2023-01-22T21:09:10.884Z,10.38
2023-01-22T21:11:41.207Z,12.60
2023-01-22T21:14:16.088Z,10.15
2023-01-22T21:16:44.847Z,12.52
2023-01-22T21:19:18.069Z,12.32
2023-01-22T21:21:46.718Z,13.82
2023-01-22T21:24:15.573Z,9.98
2023-01-22T21:26:43.758Z,8.70
2023-01-22T21:29:18.296Z,10.20
2023-01-22T21:31:50.342Z,8.90
2023-01-22T21:34:21.004Z,12.02
2023-01-22T21:36:50.437Z,12.77
2023-01-22T21:39:20.874Z,11.50
2023-01-22T21:41:49.277Z,15.57
2023-01-22T21:44:38.466Z,19.10
2023-01-22T21:47:06.468Z,11.73
2023-01-22T21:49:36.394Z,13.10
2023-01-22T21:52:08.079Z,10.88
2023-01-22T21:54:39.050Z,11.60
2023-01-22T21:57:09.274Z,15.13
2023-01-22T21:59:37.514Z,12.60
2023-01-22T22:02:06.899Z,14.18
2023-01-22T22:04:35.298Z,15.60
2023-01-22T22:07:03.295Z,13.52
2023-01-22T22:09:31.613Z,15.40
2023-01-22T22:12:00.968Z,18.90
2023-01-22T22:14:30.361Z,18.77
2023-01-22T22:16:59.271Z,15.88
2023-01-22T22:19:29.080Z,17.25
2023-01-22T22:21:57.188Z,15.88
2023-01-22T22:24:25.642Z,24.48
2023-01-22T22:26:53.509Z,18.58
2023-01-22T22:29:21.713Z,21.52
2023-01-22T22:31:49.656Z,18.75
2023-01-22T22:34:18.925Z,24.73
2023-01-22T22:36:46.828Z,22.92
2023-01-22T22:39:15.117Z,20.17
2023-01-22T22:41:43.033Z,18.90
2023-01-22T22:44:11.810Z,19.58
2023-01-22T22:46:39.912Z,17.90
2023-01-22T22:49:12.246Z,17.27
2023-01-22T22:51:42.975Z,18.10
2023-01-22T22:54:20.363Z,20.10
2023-01-22T22:56:49.932Z,14.98
2023-01-22T22:59:21.287Z,21.83
2023-01-22T23:01:50.215Z,14.48
2023-01-22T23:04:18.554Z,17.23
2023-01-22T23:06:47.385Z,23.88
2023-01-22T23:09:19.853Z,15.45
2023-01-22T23:11:52.104Z,13.60
2023-01-22T23:14:20.458Z,15.38
2023-01-22T23:16:49.146Z,16.45
2023-01-22T23:19:24.722Z,14.07
2023-01-22T23:21:56.696Z,22.00
2023-01-22T23:24:25.644Z,16.90
2023-01-22T23:26:53.736Z,15.95
2023-01-22T23:29:24.663Z,20.25
2023-01-22T23:31:53.066Z,17.00
2023-01-22T23:34:22.091Z,19.45
2023-01-22T23:36:51.069Z,23.38
2023-01-22T23:39:21.002Z,19.50
2023-01-22T23:41:49.209Z,17.33
2023-01-22T23:44:17.892Z,16.13
2023-01-22T23:46:46.073Z,18.23
2023-01-22T23:49:14.499Z,16.52
2023-01-22T23:51:44.672Z,15.15
2023-01-22T23:54:13.205Z,18.25
2023-01-22T23:56:41.109Z,15.65
2023-01-22T23:59:11.451Z,14.00
